Time;durP1;ratioP1;P1;durP2;ratioP2;P2;SDS_P1;SDS_P2;PMS_P1;PMS_P2;Temp;Humidity;BMP_temperature;BMP_pressure;BME280_temperature;BME280_humidity;BME280_pressure;Samples;Min_cycle;Max_cycle;Signal;HPM_P1;HPM_P2
2022/01/12 00:00:39;;;;;;;;;;;2.60;95.80;;;;;;5052738;28;19908;-69
2022/01/12 00:03:06;;;;;;;;;;;2.60;95.80;;;;;;5047035;28;19920;-68
2022/01/12 00:05:31;;;;;;;;;;;2.60;95.80;;;;;;5051451;28;19923;-68
2022/01/12 00:07:57;;;;;;;;;;;2.60;95.80;;;;;;5048039;28;19912;-68
2022/01/12 00:10:22;;;;;;;;;;;2.60;95.80;;;;;;5052214;28;19916;-68
2022/01/12 00:12:48;;;;;;;;;;;2.60;95.70;;;;;;5047065;28;19996;-68
2022/01/12 00:15:14;;;;;;;;;;;2.60;95.70;;;;;;5052194;28;20342;-69
2022/01/12 00:17:40;;;;;;;;;;;2.60;95.70;;;;;;5055301;28;20337;-68
2022/01/12 00:20:05;;;;;;;;;;;2.60;95.80;;;;;;5047846;28;19920;-68
2022/01/12 00:22:32;;;;;;;;;;;2.60;95.70;;;;;;5031861;28;20385;-68
2022/01/12 00:33:12;;;;;;;;;;;2.60;95.80;;;;;;5051294;28;19919;-69
2022/01/12 00:35:39;;;;;;;;;;;2.60;95.80;;;;;;5046928;28;20043;-69
2022/01/12 00:38:05;;;;;;;;;;;2.60;95.80;;;;;;5048296;28;19929;-69
2022/01/12 00:40:31;;;;;;;;;;;2.50;95.90;;;;;;5044354;28;20258;-68
2022/01/12 00:42:56;;;;;;;;;;;2.60;95.90;;;;;;5052140;28;19917;-69
2022/01/12 00:45:22;;;;;;;;;;;2.60;95.90;;;;;;5027948;28;19919;-68
2022/01/12 00:47:47;;;;;;;;;;;2.50;95.90;;;;;;5050439;28;20078;-68
2022/01/12 00:50:13;;;;;;;;;;;2.50;95.90;;;;;;5047438;28;19958;-68
2022/01/12 00:52:39;;;;;;;;;;;2.50;95.90;;;;;;5049209;28;19909;-69
2022/01/12 00:55:05;;;;;;;;;;;2.60;96.00;;;;;;5047911;28;19916;-68
2022/01/12 00:57:31;;;;;;;;;;;2.50;96.00;;;;;;5050056;28;20438;-68
2022/01/12 00:59:56;;;;;;;;;;;2.50;96.00;;;;;;5046113;28;19920;-69
2022/01/12 01:02:22;;;;;;;;;;;2.50;95.90;;;;;;5050365;28;19909;-68
2022/01/12 01:04:48;;;;;;;;;;;2.50;96.00;;;;;;5060242;28;19916;-69
2022/01/12 01:07:13;;;;;;;;;;;2.50;96.00;;;;;;5050606;28;19916;-68
2022/01/12 01:09:44;;;;;;;;;;;2.60;96.00;;;;;;5055376;28;20423;-69
2022/01/12 01:12:10;;;;;;;;;;;2.60;96.00;;;;;;5047149;28;20058;-68
2022/01/12 01:14:49;;;;;;;;;;;2.60;96.00;;;;;;5049309;28;19949;-68
2022/01/12 01:25:31;;;;;;;;;;;2.60;96.00;;;;;;5046245;28;20293;-69
2022/01/12 01:27:57;;;;;;;;;;;2.60;96.00;;;;;;5048415;28;19927;-68
2022/01/12 01:30:23;;;;;;;;;;;2.60;96.00;;;;;;5049832;28;19908;-68
2022/01/12 01:32:49;;;;;;;;;;;2.60;96.00;;;;;;5046892;28;19920;-68
2022/01/12 01:35:14;;;;;;;;;;;2.60;96.00;;;;;;5049552;28;20494;-68
2022/01/12 01:37:41;;;;;;;;;;;2.60;96.00;;;;;;5029348;28;20342;-68
2022/01/12 01:40:09;;;;;;;;;;;2.60;96.00;;;;;;5048011;28;19990;-68
2022/01/12 01:53:38;;;;;;;;;;;2.60;96.00;;;;;;5045676;28;19985;-68
2022/01/12 01:56:04;;;;;;;;;;;2.60;96.00;;;;;;5048393;28;19917;-68
2022/01/12 01:58:30;;;;;;;;;;;2.60;96.00;;;;;;5046900;28;19920;-68
2022/01/12 02:00:55;;;;;;;;;;;2.60;96.10;;;;;;5048769;28;20304;-68
2022/01/12 02:03:25;;;;;;;;;;;2.60;96.00;;;;;;5044087;28;20526;-68
2022/01/12 02:05:51;;;;;;;;;;;2.60;96.10;;;;;;5050369;28;19963;-68
2022/01/12 02:08:16;;;;;;;;;;;2.60;96.00;;;;;;5049991;28;19912;-68
2022/01/12 02:10:42;;;;;;;;;;;2.60;96.00;;;;;;5048238;28;19909;-68
2022/01/12 02:13:09;;;;;;;;;;;2.60;96.10;;;;;;5059082;28;19944;-68
2022/01/12 02:15:34;;;;;;;;;;;2.70;96.10;;;;;;5049268;28;20412;-68
2022/01/12 02:40:25;;;;;;;;;;;2.60;96.10;;;;;;5044264;28;19920;-68
2022/01/12 02:43:37;;;;;;;;;;;2.60;96.10;;;;;;5048198;28;19915;-68
2022/01/12 02:53:46;;;;;;;;;;;2.70;96.20;;;;;;5050226;28;19917;-68
2022/01/12 02:56:14;;;;;;;;;;;2.70;96.20;;;;;;5034766;28;20313;-68
2022/01/12 02:58:40;;;;;;;;;;;2.70;96.20;;;;;;5056144;28;20007;-68
2022/01/12 03:03:36;;;;;;;;;;;2.60;96.10;;;;;;5052353;28;19916;-68
2022/01/12 03:06:05;;;;;;;;;;;2.70;96.20;;;;;;5049931;28;19919;-68
2022/01/12 03:08:37;;;;;;;;;;;2.70;96.10;;;;;;5052237;28;19924;-68
2022/01/12 03:11:06;;;;;;;;;;;2.70;96.10;;;;;;5050046;28;19955;-68
2022/01/12 03:13:32;;;;;;;;;;;2.70;96.10;;;;;;5051728;28;19909;-68
2022/01/12 03:15:58;;;;;;;;;;;2.70;96.10;;;;;;5065318;28;20355;-68
2022/01/12 03:18:23;;;;;;;;;;;2.70;96.10;;;;;;5049759;28;19958;-68
2022/01/12 03:20:49;;;;;;;;;;;2.70;96.10;;;;;;5048471;28;20285;-68
2022/01/12 03:23:15;;;;;;;;;;;2.70;96.10;;;;;;5051616;28;20422;-69
2022/01/12 03:25:41;;;;;;;;;;;2.70;96.10;;;;;;5065309;28;20277;-68
2022/01/12 03:28:07;;;;;;;;;;;2.70;96.10;;;;;;5052343;28;19916;-68
2022/01/12 03:30:46;;;;;;;;;;;2.70;96.10;;;;;;5048771;28;20027;-68
2022/01/12 03:33:29;;;;;;;;;;;2.70;96.10;;;;;;5054161;28;19913;-68
2022/01/12 03:36:23;;;;;;;;;;;2.70;96.10;;;;;;5033083;28;19927;-68
2022/01/12 03:38:40;;;;;;;;;;;2.70;96.10;;;;;;5051109;28;19978;-68
2022/01/12 03:41:06;;;;;;;;;;;2.70;96.10;;;;;;5048675;28;19920;-68
2022/01/12 03:43:31;;;;;;;;;;;2.70;96.10;;;;;;5032546;28;20019;-68
2022/01/12 03:45:57;;;;;;;;;;;2.80;96.10;;;;;;5032000;28;19948;-68
2022/01/12 03:48:22;;;;;;;;;;;2.70;96.00;;;;;;5051792;28;19920;-68
2022/01/12 03:50:50;;;;;;;;;;;2.80;96.10;;;;;;5049899;28;20409;-68
2022/01/12 03:53:15;;;;;;;;;;;2.70;96.10;;;;;;5046874;28;20003;-68
2022/01/12 03:55:41;;;;;;;;;;;2.80;96.10;;;;;;5050800;28;20552;-68
2022/01/12 03:58:10;;;;;;;;;;;2.80;96.10;;;;;;5047579;28;19925;-68
2022/01/12 04:00:36;;;;;;;;;;;2.70;96.10;;;;;;5048307;28;19917;-68
2022/01/12 04:03:03;;;;;;;;;;;2.80;96.10;;;;;;5054636;28;19920;-68
2022/01/12 04:08:18;;;;;;;;;;;2.70;96.10;;;;;;5051956;28;19924;-68
2022/01/12 04:08:21;;;;;;;;;;;2.70;96.10;;;;;;5047394;28;19923;-68
2022/01/12 04:10:50;;;;;;;;;;;2.80;96.10;;;;;;5048117;28;20569;-68
2022/01/12 04:13:15;;;;;;;;;;;2.80;96.10;;;;;;5046311;28;19921;-68
2022/01/12 04:15:45;;;;;;;;;;;2.80;96.10;;;;;;5051670;28;19931;-68
2022/01/12 04:18:11;;;;;;;;;;;2.80;96.10;;;;;;5047035;28;19917;-68
2022/01/12 04:20:45;;;;;;;;;;;2.80;96.10;;;;;;5051021;28;19936;-68
2022/01/12 04:23:17;;;;;;;;;;;2.80;96.10;;;;;;5064958;28;19952;-68
2022/01/12 04:25:46;;;;;;;;;;;2.80;96.10;;;;;;5048881;28;19913;-68
2022/01/12 04:28:12;;;;;;;;;;;2.80;96.10;;;;;;5047988;28;19999;-68
2022/01/12 04:30:38;;;;;;;;;;;2.80;96.10;;;;;;5050294;28;19917;-68
2022/01/12 04:33:03;;;;;;;;;;;2.90;96.10;;;;;;5047339;28;20248;-68
2022/01/12 04:35:38;;;;;;;;;;;2.80;96.10;;;;;;5048711;28;20297;-68
2022/01/12 04:38:04;;;;;;;;;;;2.80;96.10;;;;;;5045451;28;19916;-68
2022/01/12 04:40:29;;;;;;;;;;;2.80;96.10;;;;;;5049888;28;20324;-68
2022/01/12 04:42:56;;;;;;;;;;;2.90;96.10;;;;;;5047146;28;19916;-68
2022/01/12 04:50:23;;;;;;;;;;;2.90;96.10;;;;;;5043392;28;19921;-68
2022/01/12 04:52:48;;;;;;;;;;;2.90;96.10;;;;;;5049485;28;19972;-68
2022/01/12 04:55:14;;;;;;;;;;;2.90;96.10;;;;;;5047978;28;20499;-68
2022/01/12 04:57:39;;;;;;;;;;;2.90;96.10;;;;;;5051804;28;19912;-68
2022/01/12 05:00:13;;;;;;;;;;;2.90;96.10;;;;;;5048115;28;19962;-68
2022/01/12 05:13:43;;;;;;;;;;;2.90;96.10;;;;;;5046365;28;19927;-68
2022/01/12 05:16:11;;;;;;;;;;;2.90;96.10;;;;;;5045997;28;20003;-68
2022/01/12 05:18:37;;;;;;;;;;;2.90;96.10;;;;;;5048060;28;20497;-68
2022/01/12 05:21:03;;;;;;;;;;;2.90;96.10;;;;;;5047776;28;19924;-68
2022/01/12 05:23:29;;;;;;;;;;;3.00;96.10;;;;;;5049483;28;20326;-68
2022/01/12 05:25:54;;;;;;;;;;;2.90;96.10;;;;;;5047518;28;19920;-68
2022/01/12 05:28:20;;;;;;;;;;;2.90;96.10;;;;;;5048667;28;19916;-68
2022/01/12 05:30:47;;;;;;;;;;;2.90;96.10;;;;;;5047251;28;20373;-68
2022/01/12 05:33:13;;;;;;;;;;;2.90;96.10;;;;;;5048337;28;20003;-68
2022/01/12 05:35:39;;;;;;;;;;;2.90;96.10;;;;;;5062064;28;19913;-68
2022/01/12 05:38:05;;;;;;;;;;;3.00;96.10;;;;;;5047923;28;20003;-68
2022/01/12 05:40:31;;;;;;;;;;;2.90;96.10;;;;;;5046958;28;20281;-68
2022/01/12 05:42:59;;;;;;;;;;;3.00;96.10;;;;;;5048237;28;19971;-68
2022/01/12 05:45:25;;;;;;;;;;;3.00;96.10;;;;;;5045249;28;20004;-68
2022/01/12 05:50:18;;;;;;;;;;;3.00;96.10;;;;;;5049071;28;20076;-68
2022/01/12 05:52:43;;;;;;;;;;;3.00;96.10;;;;;;5045899;28;19920;-68
2022/01/12 05:55:09;;;;;;;;;;;3.00;96.10;;;;;;5047930;28;19917;-68
2022/01/12 05:57:35;;;;;;;;;;;3.00;96.10;;;;;;5044752;28;19952;-68
2022/01/12 06:00:03;;;;;;;;;;;3.00;96.10;;;;;;5045794;28;20003;-68
2022/01/12 06:02:28;;;;;;;;;;;3.00;96.10;;;;;;5044043;28;19946;-68
2022/01/12 06:04:54;;;;;;;;;;;3.00;96.10;;;;;;5046010;28;19920;-68
2022/01/12 06:07:19;;;;;;;;;;;3.00;96.10;;;;;;5047383;28;19909;-68
2022/01/12 06:09:45;;;;;;;;;;;3.00;96.10;;;;;;5046232;28;20012;-68
2022/01/12 06:12:10;;;;;;;;;;;3.00;96.10;;;;;;5045019;28;19913;-68
2022/01/12 06:14:36;;;;;;;;;;;3.00;96.10;;;;;;5028177;28;19913;-68
2022/01/12 06:17:01;;;;;;;;;;;3.00;96.10;;;;;;5044102;28;19939;-69
2022/01/12 06:19:27;;;;;;;;;;;3.00;96.10;;;;;;5047770;28;19950;-68
2022/01/12 06:21:52;;;;;;;;;;;3.00;96.10;;;;;;5044946;28;19913;-68
2022/01/12 06:24:18;;;;;;;;;;;3.00;96.10;;;;;;5054114;28;19924;-68
2022/01/12 06:26:46;;;;;;;;;;;3.00;96.10;;;;;;5069552;28;19917;-68
2022/01/12 06:31:38;;;;;;;;;;;3.10;96.10;;;;;;5052033;28;20600;-68
2022/01/12 06:34:03;;;;;;;;;;;3.00;96.10;;;;;;5049705;28;20242;-69
2022/01/12 06:36:29;;;;;;;;;;;3.00;96.10;;;;;;5052188;28;19913;-68
2022/01/12 06:38:54;;;;;;;;;;;3.00;96.10;;;;;;5050351;28;19921;-68
2022/01/12 06:41:20;;;;;;;;;;;3.10;96.20;;;;;;5051930;28;20015;-68
2022/01/12 06:43:46;;;;;;;;;;;3.00;96.10;;;;;;5050582;28;19908;-68
2022/01/12 06:46:14;;;;;;;;;;;3.10;96.40;;;;;;5051962;28;20665;-68
2022/01/12 06:48:40;;;;;;;;;;;3.10;96.10;;;;;;5067167;28;20386;-68
2022/01/12 06:51:06;;;;;;;;;;;3.10;96.10;;;;;;5034404;28;20003;-68
2022/01/12 06:53:32;;;;;;;;;;;3.10;96.20;;;;;;5048555;28;20297;-68
2022/01/12 06:55:58;;;;;;;;;;;3.00;96.10;;;;;;5055052;28;20362;-68
2022/01/12 06:58:25;;;;;;;;;;;3.10;96.10;;;;;;5048687;28;19924;-68
2022/01/12 07:00:50;;;;;;;;;;;3.10;96.10;;;;;;5051503;28;19913;-68
2022/01/12 07:03:16;;;;;;;;;;;3.10;96.30;;;;;;5053085;28;20353;-69
2022/01/12 07:05:41;;;;;;;;;;;3.10;96.20;;;;;;5053474;28;20266;-68
2022/01/12 07:08:07;;;;;;;;;;;3.10;96.10;;;;;;5050508;28;19920;-68
2022/01/12 07:10:32;;;;;;;;;;;3.10;96.20;;;;;;5050290;28;20340;-68
2022/01/12 07:12:58;;;;;;;;;;;3.10;96.20;;;;;;5050500;28;19942;-68
2022/01/12 07:15:24;;;;;;;;;;;3.10;96.20;;;;;;5055059;28;19975;-69
2022/01/12 07:17:49;;;;;;;;;;;3.10;96.20;;;;;;5033203;28;20651;-68
2022/01/12 07:20:16;;;;;;;;;;;3.10;96.10;;;;;;5049983;28;19936;-68
2022/01/12 07:22:41;;;;;;;;;;;3.10;96.20;;;;;;5049426;28;19974;-68
2022/01/12 07:25:07;;;;;;;;;;;3.10;96.10;;;;;;5051383;28;19917;-68
2022/01/12 07:27:32;;;;;;;;;;;3.10;96.20;;;;;;5055808;28;19959;-68
2022/01/12 07:29:58;;;;;;;;;;;3.10;96.10;;;;;;5050532;28;19928;-68
2022/01/12 07:32:23;;;;;;;;;;;3.20;96.10;;;;;;5050981;28;19924;-69
2022/01/12 07:34:50;;;;;;;;;;;3.10;96.10;;;;;;5050479;28;20393;-68
2022/01/12 07:37:16;;;;;;;;;;;3.20;96.10;;;;;;5052281;28;19920;-68
2022/01/12 07:39:41;;;;;;;;;;;3.10;96.10;;;;;;5050375;28;19920;-68
2022/01/12 07:42:07;;;;;;;;;;;3.20;96.10;;;;;;5050346;28;19917;-68
2022/01/12 07:44:32;;;;;;;;;;;3.20;96.20;;;;;;5049547;28;19913;-68
2022/01/12 07:46:58;;;;;;;;;;;3.20;96.10;;;;;;5048055;28;19924;-68
2022/01/12 07:49:23;;;;;;;;;;;3.20;96.20;;;;;;5048990;28;19921;-68
2022/01/12 07:51:49;;;;;;;;;;;3.20;96.10;;;;;;5051809;28;20378;-68
2022/01/12 07:54:14;;;;;;;;;;;3.20;96.10;;;;;;5033372;28;20007;-68
2022/01/12 07:56:40;;;;;;;;;;;3.20;96.10;;;;;;5049685;28;19944;-68
2022/01/12 07:59:05;;;;;;;;;;;3.20;96.10;;;;;;5053992;28;19925;-68
2022/01/12 08:01:31;;;;;;;;;;;3.20;96.10;;;;;;5050344;28;20036;-68
2022/01/12 08:03:57;;;;;;;;;;;3.20;96.10;;;;;;5053361;28;19920;-69
2022/01/12 08:06:22;;;;;;;;;;;3.20;96.10;;;;;;5048281;28;20047;-69
2022/01/12 08:08:48;;;;;;;;;;;3.30;96.10;;;;;;5051128;28;19909;-68
2022/01/12 08:11:14;;;;;;;;;;;3.30;96.10;;;;;;5048764;28;19913;-68
2022/01/12 08:13:39;;;;;;;;;;;3.20;96.10;;;;;;5065236;28;19920;-68
2022/01/12 08:16:05;;;;;;;;;;;3.20;96.10;;;;;;5049846;28;19912;-68
2022/01/12 08:18:30;;;;;;;;;;;3.20;96.10;;;;;;5048682;28;19928;-69
2022/01/12 08:20:56;;;;;;;;;;;3.20;96.10;;;;;;5051818;28;19917;-68
2022/01/12 08:23:21;;;;;;;;;;;3.20;96.10;;;;;;5048327;28;19912;-68
2022/01/12 08:25:47;;;;;;;;;;;3.30;96.10;;;;;;5055238;28;19916;-68
2022/01/12 08:28:13;;;;;;;;;;;3.30;96.10;;;;;;5048680;28;19916;-68
2022/01/12 08:30:39;;;;;;;;;;;3.30;96.10;;;;;;5048114;28;21255;-68
2022/01/12 08:33:05;;;;;;;;;;;3.30;96.00;;;;;;5048794;28;19924;-68
2022/01/12 08:35:31;;;;;;;;;;;3.30;96.00;;;;;;5049977;28;20517;-68
2022/01/12 08:37:57;;;;;;;;;;;3.30;96.00;;;;;;5049144;28;19916;-68
2022/01/12 08:40:25;;;;;;;;;;;3.30;96.00;;;;;;5051151;28;19909;-68
2022/01/12 08:42:50;;;;;;;;;;;3.30;96.00;;;;;;5047244;28;19917;-68
2022/01/12 08:45:16;;;;;;;;;;;3.40;96.00;;;;;;5037158;28;19917;-68
2022/01/12 08:47:42;;;;;;;;;;;3.30;96.00;;;;;;5047244;28;19924;-68
2022/01/12 08:50:08;;;;;;;;;;;3.30;96.00;;;;;;5054111;28;19995;-69
2022/01/12 08:52:34;;;;;;;;;;;3.30;96.00;;;;;;5051386;28;19913;-68
2022/01/12 08:55:00;;;;;;;;;;;3.40;96.00;;;;;;5048364;28;20003;-68
2022/01/12 08:57:29;;;;;;;;;;;3.40;96.00;;;;;;5051494;28;19917;-68
2022/01/12 08:59:57;;;;;;;;;;;3.40;96.00;;;;;;5047907;28;19925;-71
2022/01/12 09:02:23;;;;;;;;;;;3.40;95.90;;;;;;5049360;28;19959;-71
2022/01/12 09:04:48;;;;;;;;;;;3.50;96.00;;;;;;5032498;28;19917;-71
2022/01/12 09:07:14;;;;;;;;;;;3.40;95.90;;;;;;5048315;28;19924;-71
2022/01/12 09:09:40;;;;;;;;;;;3.40;96.00;;;;;;5048451;28;20601;-71
2022/01/12 09:12:05;;;;;;;;;;;3.50;96.00;;;;;;5047722;28;19936;-71
2022/01/12 09:14:32;;;;;;;;;;;3.50;96.00;;;;;;5047012;28;20270;-71
2022/01/12 09:16:58;;;;;;;;;;;3.40;95.90;;;;;;5027055;28;19916;-71
2022/01/12 09:19:24;;;;;;;;;;;3.50;95.90;;;;;;5045992;28;20007;-71
2022/01/12 09:21:50;;;;;;;;;;;3.50;95.90;;;;;;5050387;28;19913;-71
2022/01/12 09:24:16;;;;;;;;;;;3.50;95.90;;;;;;5044537;28;19913;-71
2022/01/12 09:26:41;;;;;;;;;;;3.50;96.00;;;;;;5048383;28;19912;-71
2022/01/12 09:29:07;;;;;;;;;;;3.50;96.00;;;;;;5046804;28;19917;-71
2022/01/12 09:31:32;;;;;;;;;;;3.50;96.00;;;;;;5054895;28;19913;-71
2022/01/12 09:33:58;;;;;;;;;;;3.50;96.00;;;;;;5049932;28;20362;-71
2022/01/12 09:36:23;;;;;;;;;;;3.50;96.00;;;;;;5048923;28;19917;-71
2022/01/12 09:38:49;;;;;;;;;;;3.50;96.00;;;;;;5047592;28;19967;-71
2022/01/12 09:41:15;;;;;;;;;;;3.60;96.00;;;;;;5045798;28;19955;-71
2022/01/12 09:43:42;;;;;;;;;;;3.50;95.90;;;;;;5044402;28;19912;-71
2022/01/12 09:46:08;;;;;;;;;;;3.50;96.00;;;;;;5045602;28;19924;-71
2022/01/12 09:48:34;;;;;;;;;;;3.60;96.00;;;;;;5048067;28;20400;-71
2022/01/12 09:51:04;;;;;;;;;;;3.60;96.00;;;;;;5048621;28;20354;-71
2022/01/12 09:53:29;;;;;;;;;;;3.60;95.90;;;;;;5057264;28;19913;-71
2022/01/12 09:55:55;;;;;;;;;;;3.60;95.90;;;;;;5049165;28;19951;-71
2022/01/12 09:58:21;;;;;;;;;;;3.60;95.90;;;;;;5050242;28;19921;-71
2022/01/12 10:00:56;;;;;;;;;;;3.70;95.90;;;;;;5047408;28;19928;-71
2022/01/12 10:03:23;;;;;;;;;;;3.70;95.90;;;;;;5052621;28;19940;-71
2022/01/12 10:05:49;;;;;;;;;;;3.70;95.90;;;;;;5047812;28;19928;-71
2022/01/12 10:08:15;;;;;;;;;;;3.70;95.90;;;;;;5049698;28;19916;-71
2022/01/12 10:10:42;;;;;;;;;;;3.70;95.90;;;;;;5046523;28;19916;-71
2022/01/12 10:13:22;;;;;;;;;;;3.70;95.90;;;;;;5049749;28;19969;-71
2022/01/12 10:15:48;;;;;;;;;;;3.80;95.90;;;;;;5045918;28;20324;-71
2022/01/12 10:18:14;;;;;;;;;;;3.80;95.90;;;;;;5048462;28;19912;-71
2022/01/12 10:20:43;;;;;;;;;;;3.80;95.90;;;;;;5047524;28;20333;-71
2022/01/12 10:23:11;;;;;;;;;;;3.80;95.80;;;;;;5049065;28;19930;-71
2022/01/12 10:25:37;;;;;;;;;;;3.90;95.80;;;;;;5050574;28;19948;-71
2022/01/12 10:28:18;;;;;;;;;;;3.90;95.80;;;;;;5047019;28;19909;-71
2022/01/12 10:30:54;;;;;;;;;;;3.90;95.80;;;;;;5047043;28;19916;-71
2022/01/12 10:33:22;;;;;;;;;;;3.90;95.80;;;;;;5028699;28;20269;-71
2022/01/12 10:35:52;;;;;;;;;;;4.00;95.80;;;;;;5047230;28;19960;-71
2022/01/12 10:38:18;;;;;;;;;;;3.90;95.80;;;;;;5041796;28;20539;-71
2022/01/12 10:40:54;;;;;;;;;;;3.90;95.80;;;;;;5048512;28;19919;-71
2022/01/12 10:43:25;;;;;;;;;;;3.90;95.80;;;;;;5046801;28;19916;-71
2022/01/12 10:45:51;;;;;;;;;;;3.90;95.80;;;;;;5036576;28;19921;-71
2022/01/12 10:48:16;;;;;;;;;;;4.00;95.80;;;;;;5045840;28;19916;-71
2022/01/12 10:50:52;;;;;;;;;;;4.00;95.80;;;;;;5058673;28;20660;-71
2022/01/12 10:53:31;;;;;;;;;;;4.00;95.90;;;;;;5044360;28;19917;-71
2022/01/12 10:56:06;;;;;;;;;;;4.00;95.90;;;;;;5049193;28;19983;-71
2022/01/12 10:58:32;;;;;;;;;;;4.00;95.90;;;;;;5042990;28;19932;-71
2022/01/12 11:00:58;;;;;;;;;;;4.00;95.90;;;;;;5048618;28;19920;-71
2022/01/12 11:03:23;;;;;;;;;;;4.00;95.90;;;;;;5045619;28;19917;-71
2022/01/12 11:05:50;;;;;;;;;;;4.00;96.20;;;;;;5049223;28;20358;-71
2022/01/12 11:08:18;;;;;;;;;;;4.00;95.90;;;;;;5026396;28;20008;-71
2022/01/12 11:10:45;;;;;;;;;;;4.10;95.90;;;;;;5050753;28;20011;-71
2022/01/12 11:13:11;;;;;;;;;;;4.10;96.00;;;;;;5048235;28;19940;-71
2022/01/12 11:15:36;;;;;;;;;;;4.10;95.90;;;;;;5064916;28;19917;-71
2022/01/12 11:18:02;;;;;;;;;;;4.10;95.90;;;;;;5052697;28;19913;-71
2022/01/12 11:20:30;;;;;;;;;;;4.10;96.00;;;;;;5047871;28;20411;-71
2022/01/12 11:23:06;;;;;;;;;;;4.10;95.90;;;;;;5052136;28;19919;-71
2022/01/12 11:25:37;;;;;;;;;;;4.10;96.00;;;;;;5033214;28;19912;-71
2022/01/12 11:28:07;;;;;;;;;;;4.10;96.00;;;;;;5051996;28;19995;-71
2022/01/12 11:30:33;;;;;;;;;;;4.10;96.00;;;;;;5032457;28;19917;-71
2022/01/12 11:33:00;;;;;;;;;;;4.10;95.90;;;;;;5050978;28;19987;-71
2022/01/12 11:35:26;;;;;;;;;;;4.20;96.00;;;;;;5050332;28;19921;-71
2022/01/12 11:37:57;;;;;;;;;;;4.20;95.90;;;;;;5050106;28;19913;-71
2022/01/12 11:40:31;;;;;;;;;;;4.20;96.00;;;;;;5047770;28;20015;-71
2022/01/12 11:42:57;;;;;;;;;;;4.20;95.90;;;;;;5065876;28;19997;-71
2022/01/12 11:45:23;;;;;;;;;;;4.20;95.80;;;;;;5045704;28;20015;-71
2022/01/12 11:47:48;;;;;;;;;;;4.20;95.80;;;;;;5042642;28;19909;-71
2022/01/12 11:50:14;;;;;;;;;;;4.30;95.80;;;;;;5048579;28;19921;-71
2022/01/12 11:52:39;;;;;;;;;;;4.30;95.90;;;;;;5050835;28;20375;-71
2022/01/12 11:55:12;;;;;;;;;;;4.30;95.80;;;;;;5045612;28;19916;-71
2022/01/12 11:57:41;;;;;;;;;;;4.30;95.80;;;;;;5052978;28;19915;-71
2022/01/12 12:00:12;;;;;;;;;;;4.30;95.80;;;;;;5046232;28;19925;-71
2022/01/12 12:02:38;;;;;;;;;;;4.30;95.90;;;;;;5050558;28;19909;-71
2022/01/12 12:05:13;;;;;;;;;;;4.30;95.90;;;;;;5030168;28;20365;-71
2022/01/12 12:07:42;;;;;;;;;;;4.30;95.90;;;;;;5048647;28;19987;-71
2022/01/12 12:10:12;;;;;;;;;;;4.30;96.00;;;;;;5032736;28;19919;-71
2022/01/12 12:12:37;;;;;;;;;;;4.30;96.00;;;;;;5049349;28;20493;-71
2022/01/12 12:15:04;;;;;;;;;;;4.30;95.90;;;;;;5049679;28;19909;-71
2022/01/12 12:17:31;;;;;;;;;;;4.30;95.90;;;;;;5048352;28;19934;-71
2022/01/12 12:19:57;;;;;;;;;;;4.30;96.00;;;;;;5053133;28;20389;-71
2022/01/12 12:22:33;;;;;;;;;;;4.30;96.00;;;;;;5047928;28;20358;-71
2022/01/12 12:25:02;;;;;;;;;;;4.30;96.00;;;;;;5055400;28;19944;-71
2022/01/12 12:27:28;;;;;;;;;;;4.40;96.00;;;;;;5048397;28;20581;-71
2022/01/12 12:29:54;;;;;;;;;;;4.30;96.00;;;;;;5051217;28;19920;-71
2022/01/12 12:32:31;;;;;;;;;;;4.30;96.00;;;;;;5045740;28;19917;-71
2022/01/12 12:35:01;;;;;;;;;;;4.30;96.00;;;;;;5054235;28;20358;-71
2022/01/12 12:37:32;;;;;;;;;;;4.30;96.00;;;;;;5043093;28;19912;-71
2022/01/12 12:39:58;;;;;;;;;;;4.40;96.10;;;;;;5033295;28;19917;-71
2022/01/12 12:42:23;;;;;;;;;;;4.40;96.10;;;;;;5047050;28;19935;-71
2022/01/12 12:44:55;;;;;;;;;;;4.30;96.00;;;;;;5048652;28;19916;-71
2022/01/12 12:47:21;;;;;;;;;;;4.40;96.00;;;;;;5044280;28;20026;-71
2022/01/12 12:49:56;;;;;;;;;;;4.30;96.10;;;;;;5049369;28;20361;-71
2022/01/12 12:52:29;;;;;;;;;;;4.30;96.10;;;;;;5046421;28;20562;-71
2022/01/12 12:54:55;;;;;;;;;;;4.40;96.10;;;;;;5048913;28;19912;-71
2022/01/12 12:57:21;;;;;;;;;;;4.40;96.10;;;;;;5046816;28;19917;-71
2022/01/12 12:59:51;;;;;;;;;;;4.40;96.10;;;;;;5048679;28;20373;-71
2022/01/12 13:02:17;;;;;;;;;;;4.40;96.20;;;;;;5046906;28;20356;-71
2022/01/12 13:04:42;;;;;;;;;;;4.40;96.10;;;;;;5050424;28;19909;-71
2022/01/12 13:07:16;;;;;;;;;;;4.40;96.10;;;;;;5050593;28;19909;-71
2022/01/12 13:09:42;;;;;;;;;;;4.30;96.10;;;;;;5030519;28;19923;-71
2022/01/12 13:12:08;;;;;;;;;;;4.40;96.20;;;;;;5054324;28;19989;-71
2022/01/12 13:14:42;;;;;;;;;;;4.40;96.20;;;;;;5045309;28;19921;-71
2022/01/12 13:17:07;;;;;;;;;;;4.40;96.20;;;;;;5033626;28;19913;-71
2022/01/12 13:22:26;;;;;;;;;;;4.40;96.20;;;;;;5050112;28;19916;-71
2022/01/12 13:24:51;;;;;;;;;;;4.40;96.20;;;;;;5047486;28;19912;-71
2022/01/12 13:27:17;;;;;;;;;;;4.40;96.20;;;;;;5049440;28;19909;-71
2022/01/12 13:29:49;;;;;;;;;;;4.40;96.20;;;;;;5028147;28;20023;-71
2022/01/12 13:32:15;;;;;;;;;;;4.40;96.30;;;;;;5048478;28;20437;-71
2022/01/12 13:34:43;;;;;;;;;;;4.40;96.30;;;;;;5044771;28;20000;-71
2022/01/12 13:37:15;;;;;;;;;;;4.40;96.30;;;;;;5049039;28;20396;-71
2022/01/12 13:39:42;;;;;;;;;;;4.40;96.30;;;;;;5045974;28;19941;-71
2022/01/12 13:42:07;;;;;;;;;;;4.40;96.30;;;;;;5049805;28;19909;-71
2022/01/12 13:44:33;;;;;;;;;;;4.40;96.30;;;;;;5045980;28;19959;-71
2022/01/12 13:47:23;;;;;;;;;;;4.40;96.30;;;;;;5048663;28;19920;-71
2022/01/12 13:49:46;;;;;;;;;;;4.40;96.40;;;;;;5040669;28;19921;-71
2022/01/12 13:52:12;;;;;;;;;;;4.40;96.40;;;;;;5046710;28;19917;-71
2022/01/12 13:54:41;;;;;;;;;;;4.40;96.40;;;;;;5050917;28;20873;-71
2022/01/12 13:57:09;;;;;;;;;;;4.40;96.40;;;;;;5045367;28;19913;-71
2022/01/12 13:59:48;;;;;;;;;;;4.40;96.50;;;;;;5049143;28;19919;-71
2022/01/12 14:02:14;;;;;;;;;;;4.40;96.50;;;;;;5047075;28;20019;-71
2022/01/12 14:04:45;;;;;;;;;;;4.40;96.50;;;;;;5046054;28;19909;-71
2022/01/12 14:07:20;;;;;;;;;;;4.40;96.50;;;;;;5047828;28;19920;-71
2022/01/12 14:09:51;;;;;;;;;;;4.30;96.40;;;;;;5054362;28;20605;-71
2022/01/12 14:12:18;;;;;;;;;;;4.40;96.50;;;;;;5044753;28;20003;-71
2022/01/12 14:14:46;;;;;;;;;;;4.40;96.50;;;;;;5050207;28;19913;-71
2022/01/12 14:17:27;;;;;;;;;;;4.40;96.50;;;;;;5045332;28;20492;-71
2022/01/12 14:19:54;;;;;;;;;;;4.30;96.50;;;;;;5047765;28;19920;-71
2022/01/12 14:22:20;;;;;;;;;;;4.30;96.50;;;;;;5045234;28;19979;-71
2022/01/12 14:25:02;;;;;;;;;;;4.30;96.50;;;;;;5050488;28;20393;-71
2022/01/12 14:27:41;;;;;;;;;;;4.30;96.50;;;;;;5042475;28;19921;-71
2022/01/12 14:30:07;;;;;;;;;;;4.40;96.50;;;;;;5049226;28;19959;-71
2022/01/12 14:32:36;;;;;;;;;;;4.30;96.50;;;;;;5027485;28;19963;-71
2022/01/12 14:35:05;;;;;;;;;;;4.30;96.50;;;;;;5049299;28;20641;-71
2022/01/12 14:37:31;;;;;;;;;;;4.30;96.50;;;;;;5023857;28;19916;-71
2022/01/12 14:39:57;;;;;;;;;;;4.30;96.50;;;;;;5044818;28;19990;-71
2022/01/12 14:42:22;;;;;;;;;;;4.30;96.50;;;;;;5030215;28;20015;-71
2022/01/12 14:44:48;;;;;;;;;;;4.30;96.50;;;;;;5050612;28;19931;-71
2022/01/12 14:47:14;;;;;;;;;;;4.30;96.50;;;;;;5034334;28;19916;-71
2022/01/12 14:49:39;;;;;;;;;;;4.30;96.50;;;;;;5052967;28;19909;-71
2022/01/12 14:52:05;;;;;;;;;;;4.40;96.60;;;;;;5050284;28;19913;-71
2022/01/12 14:54:30;;;;;;;;;;;4.30;96.50;;;;;;5050532;28;19913;-71
2022/01/12 14:56:56;;;;;;;;;;;4.30;96.50;;;;;;5049683;28;19931;-71
2022/01/12 14:59:21;;;;;;;;;;;4.30;96.60;;;;;;5049800;28;19924;-71
2022/01/12 15:01:47;;;;;;;;;;;4.30;96.60;;;;;;5051645;28;19970;-71
2022/01/12 15:04:12;;;;;;;;;;;4.30;96.60;;;;;;5048715;28;19916;-71
2022/01/12 15:06:38;;;;;;;;;;;4.30;96.60;;;;;;5051757;28;19913;-71
2022/01/12 15:09:03;;;;;;;;;;;4.30;96.60;;;;;;5045359;28;20401;-71
2022/01/12 15:11:29;;;;;;;;;;;4.30;96.60;;;;;;5051974;28;19955;-71
2022/01/12 15:13:58;;;;;;;;;;;4.30;96.60;;;;;;5029684;28;19948;-71
2022/01/12 15:16:23;;;;;;;;;;;4.30;96.60;;;;;;5051507;28;19909;-71
2022/01/12 15:18:49;;;;;;;;;;;4.30;96.60;;;;;;5044696;28;19928;-71
2022/01/12 15:21:16;;;;;;;;;;;4.30;96.60;;;;;;5054411;28;19982;-71
2022/01/12 15:23:42;;;;;;;;;;;4.30;96.60;;;;;;5047570;28;20354;-69
2022/01/12 15:26:07;;;;;;;;;;;4.30;96.60;;;;;;5049453;28;19955;-69
2022/01/12 15:28:33;;;;;;;;;;;4.30;96.60;;;;;;5044530;28;19913;-69
2022/01/12 15:30:58;;;;;;;;;;;4.30;96.60;;;;;;5051949;28;19917;-69
2022/01/12 15:33:24;;;;;;;;;;;4.30;96.60;;;;;;5049283;28;19917;-70
2022/01/12 15:35:49;;;;;;;;;;;4.30;96.60;;;;;;5047900;28;19995;-70
2022/01/12 15:38:15;;;;;;;;;;;4.30;96.60;;;;;;5047583;28;19920;-70
2022/01/12 15:40:41;;;;;;;;;;;4.20;96.60;;;;;;5048405;28;19924;-70
2022/01/12 15:43:07;;;;;;;;;;;4.30;96.60;;;;;;5049290;28;20003;-70
2022/01/12 15:45:33;;;;;;;;;;;4.20;96.60;;;;;;5048058;28;19995;-70
2022/01/12 15:47:59;;;;;;;;;;;4.30;96.60;;;;;;5050658;28;19913;-69
2022/01/12 15:50:24;;;;;;;;;;;4.20;96.60;;;;;;5027444;28;19924;-69
2022/01/12 15:52:50;;;;;;;;;;;4.20;96.60;;;;;;5049127;28;19913;-69
2022/01/12 15:55:15;;;;;;;;;;;4.20;96.60;;;;;;5048854;28;19916;-69